Wetterstation Vordersexau
Wetterdaten: Woche 06.04.15 - 12.04.15 (KW15)
Datum Zeit Temp. A. Feuchte A. Luftdruck Regen Wind Richtung Taupunkt Windchill Windben
06.04.2015 00:00 0,3 C 76 % 1022,2 hPa 0,0 l/m 0,0 km/h NO -3,4 C 0,3 C 0,0 km/h
06.04.2015 01:00 -0,4 C 78 % 1022,2 hPa 0,0 l/m 0,0 km/h NO -3,8 C -0,4 C 0,0 km/h
06.04.2015 02:00 -0,7 C 79 % 1022,1 hPa 0,0 l/m 0,0 km/h SO -3,9 C -0,7 C 0,0 km/h
06.04.2015 03:00 -0,8 C 80 % 1022,2 hPa 0,0 l/m 0,0 km/h SO -3,8 C -0,8 C 0,0 km/h
06.04.2015 04:00 -1,8 C 80 % 1022,4 hPa 0,0 l/m 0,0 km/h O-SO -4,8 C -1,8 C 0,0 km/h
06.04.2015 05:00 -3,2 C 81 % 1022,6 hPa 0,0 l/m 0,0 km/h O-SO -6,0 C -3,2 C 0,0 km/h
06.04.2015 06:00 -3,6 C 83 % 1023,0 hPa 0,0 l/m 0,0 km/h O -6,1 C -3,6 C 0,0 km/h
06.04.2015 07:00 -2,6 C 84 % 1023,8 hPa 0,0 l/m 0,0 km/h O -4,9 C -2,6 C 0,0 km/h
06.04.2015 08:00 4,2 C 85 % 1024,2 hPa 0,0 l/m 0,0 km/h NW 1,9 C 4,2 C 0,0 km/h
06.04.2015 09:00 11,8 C 55 % 1024,5 hPa 0,0 l/m 0,0 km/h W-NW 3,1 C 11,8 C 0,0 km/h
06.04.2015 10:00 9,9 C 54 % 1024,8 hPa 0,0 l/m 0,0 km/h W 1,0 C 9,9 C 0,0 km/h
06.04.2015 11:00 12,4 C 50 % 1024,9 hPa 0,0 l/m 0,0 km/h W-NW 2,3 C 12,4 C 0,0 km/h
06.04.2015 12:00 11,9 C 49 % 1024,5 hPa 0,0 l/m 7,8 km/h N-NO 1,5 C 11,0 C 4,3 km/h
06.04.2015 13:00 11,5 C 42 % 1024,8 hPa 0,0 l/m 0,0 km/h NO -1,0 C 11,5 C 0,0 km/h
06.04.2015 14:00 12,2 C 40 % 1025,2 hPa 0,0 l/m 0,0 km/h N-NO -1,0 C 12,2 C 0,0 km/h
06.04.2015 15:00 14,1 C 38 % 1025,0 hPa 0,0 l/m 0,0 km/h N-NO 0,0 C 14,1 C 0,0 km/h
06.04.2015 16:00 14,9 C 35 % 1025,2 hPa 0,0 l/m 0,0 km/h N-NO -0,4 C 14,9 C 0,0 km/h
06.04.2015 17:00 11,7 C 42 % 1025,5 hPa 0,0 l/m 0,6 km/h N-NO -0,8 C 11,7 C 0,4 km/h
06.04.2015 18:00 11,4 C 41 % 1026,1 hPa 0,0 l/m 0,0 km/h N-NO -1,4 C 11,4 C 0,0 km/h
06.04.2015 19:00 8,1 C 49 % 1026,9 hPa 0,0 l/m 0,0 km/h N-NO -2,0 C 8,1 C 0,0 km/h
06.04.2015 20:00 3,6 C 58 % 1027,9 hPa 0,0 l/m 0,0 km/h O -3,9 C 3,6 C 0,0 km/h
06.04.2015 21:00 1,2 C 70 % 1028,7 hPa 0,0 l/m 0,0 km/h O-SO -3,7 C 1,2 C 0,0 km/h
06.04.2015 22:00 1,3 C 73 % 1029,2 hPa 0,0 l/m 0,0 km/h SO -3,0 C 1,3 C 0,0 km/h
06.04.2015 23:00 1,2 C 77 % 1029,7 hPa 0,0 l/m 0,0 km/h SO -2,4 C 1,2 C 0,0 km/h
07.04.2015 00:00 0,3 C 79 % 1030,2 hPa 0,0 l/m 0,0 km/h NO -2,9 C 0,3 C 0,0 km/h
07.04.2015 01:00 0,1 C 81 % 1030,6 hPa 0,0 l/m 0,0 km/h SO -2,8 C 0,1 C 0,0 km/h
07.04.2015 02:00 0,1 C 81 % 1031,0 hPa 0,0 l/m 0,0 km/h SO -2,8 C 0,1 C 0,0 km/h
07.04.2015 03:00 -0,6 C 81 % 1031,1 hPa 0,0 l/m 0,0 km/h O-NO -3,4 C -0,6 C 0,0 km/h
07.04.2015 04:00 -1,0 C 82 % 1031,5 hPa 0,0 l/m 0,0 km/h SO -3,7 C -1,0 C 0,0 km/h
07.04.2015 05:00 -1,2 C 83 % 1031,7 hPa 0,0 l/m 0,0 km/h NO -3,7 C -1,2 C 0,0 km/h
07.04.2015 06:00 -1,9 C 83 % 1032,2 hPa 0,0 l/m 0,0 km/h O-SO -4,4 C -1,9 C 0,0 km/h
07.04.2015 07:00 -1,7 C 84 % 1032,9 hPa 0,0 l/m 0,0 km/h SO -4,0 C -1,7 C 0,0 km/h
07.04.2015 08:00 4,9 C 83 % 1032,9 hPa 0,0 l/m 0,0 km/h W 2,3 C 4,9 C 0,0 km/h
07.04.2015 09:00 12,4 C 56 % 1033,5 hPa 0,0 l/m 0,0 km/h NW 3,9 C 12,4 C 0,0 km/h
07.04.2015 10:00 13,3 C 49 % 1033,4 hPa 0,0 l/m 0,0 km/h N-NO 2,8 C 13,3 C 0,0 km/h
07.04.2015 11:00 18,6 C 34 % 1033,2 hPa 0,0 l/m 7,8 km/h NW 2,4 C 18,0 C 4,3 km/h
07.04.2015 12:00 17,1 C 36 % 1032,6 hPa 0,0 l/m 0,0 km/h NO 1,9 C 17,1 C 0,0 km/h
07.04.2015 13:00 17,4 C 33 % 1031,9 hPa 0,0 l/m 0,0 km/h NW 1,0 C 17,4 C 0,0 km/h
07.04.2015 14:00 18,3 C 32 % 1031,6 hPa 0,0 l/m 0,0 km/h W 1,3 C 18,3 C 0,0 km/h
07.04.2015 15:00 19,3 C 32 % 1031,0 hPa 0,0 l/m 1,9 km/h SW 2,2 C 19,3 C 1,1 km/h
07.04.2015 16:00 20,3 C 30 % 1030,3 hPa 0,0 l/m 14,9 km/h NW 2,2 C 17,6 C 8,3 km/h
07.04.2015 17:00 20,7 C 29 % 1030,4 hPa 0,0 l/m 3,2 km/h N 2,0 C 20,7 C 1,8 km/h
07.04.2015 18:00 17,9 C 34 % 1030,5 hPa 0,0 l/m 3,9 km/h N-NO 1,8 C 17,9 C 2,2 km/h
07.04.2015 19:00 10,8 C 43 % 1030,4 hPa 0,0 l/m 0,0 km/h N-NO -1,3 C 10,8 C 0,0 km/h
07.04.2015 20:00 5,4 C 55 % 1030,7 hPa 0,0 l/m 0,0 km/h SO -2,9 C 5,4 C 0,0 km/h
07.04.2015 21:00 4,5 C 64 % 1031,0 hPa 0,0 l/m 0,0 km/h SO -1,7 C 4,5 C 0,0 km/h
07.04.2015 22:00 2,5 C 70 % 1031,4 hPa 0,0 l/m 0,0 km/h SO -2,4 C 2,5 C 0,0 km/h
07.04.2015 23:00 2,9 C 73 % 1031,1 hPa 0,0 l/m 0,0 km/h SO -1,5 C 2,9 C 0,0 km/h
08.04.2015 00:00 1,8 C 75 % 1030,9 hPa 0,0 l/m 0,0 km/h O-SO -2,1 C 1,8 C 0,0 km/h
08.04.2015 01:00 1,3 C 77 % 1030,9 hPa 0,0 l/m 0,0 km/h SO -2,3 C 1,3 C 0,0 km/h
08.04.2015 02:00 1,0 C 78 % 1030,7 hPa 0,0 l/m 0,0 km/h SO -2,4 C 1,0 C 0,0 km/h
08.04.2015 03:00 -0,2 C 79 % 1030,4 hPa 0,0 l/m 0,0 km/h NO -3,4 C -0,2 C 0,0 km/h
08.04.2015 04:00 -0,2 C 81 % 1030,4 hPa 0,0 l/m 0,0 km/h O -3,1 C -0,2 C 0,0 km/h
08.04.2015 05:00 -0,8 C 81 % 1030,1 hPa 0,0 l/m 0,0 km/h O-NO -3,6 C -0,8 C 0,0 km/h
08.04.2015 06:00 -0,7 C 82 % 1029,9 hPa 0,0 l/m 0,0 km/h O-NO -3,4 C -0,7 C 0,0 km/h
08.04.2015 07:00 0,4 C 82 % 1030,4 hPa 0,0 l/m 0,0 km/h O -2,3 C 0,4 C 0,0 km/h
08.04.2015 08:00 7,5 C 75 % 1030,7 hPa 0,0 l/m 0,0 km/h NW 3,4 C 7,5 C 0,0 km/h
08.04.2015 09:00 12,4 C 52 % 1030,7 hPa 0,0 l/m 0,0 km/h W-NW 2,8 C 12,4 C 0,0 km/h
08.04.2015 10:00 14,4 C 47 % 1030,6 hPa 0,0 l/m 0,0 km/h W-NW 3,2 C 14,4 C 0,0 km/h
08.04.2015 11:00 18,8 C 40 % 1030,0 hPa 0,0 l/m 24,0 km/h W-NW 4,9 C 13,9 C 13,3 km/h
08.04.2015 12:00 20,0 C 37 % 1029,6 hPa 0,0 l/m 0,0 km/h W 4,9 C 20,0 C 0,0 km/h
08.04.2015 13:00 19,5 C 39 % 1029,1 hPa 0,0 l/m 0,6 km/h W-NW 5,2 C 19,5 C 0,4 km/h
08.04.2015 14:00 20,9 C 33 % 1028,3 hPa 0,0 l/m 2,6 km/h N 4,0 C 20,9 C 1,4 km/h
08.04.2015 15:00 22,9 C 31 % 1027,8 hPa 0,0 l/m 9,1 km/h NW 4,9 C 22,1 C 5,0 km/h
08.04.2015 16:00 23,8 C 29 % 1027,3 hPa 0,0 l/m 7,1 km/h N-NO 4,7 C 23,6 C 4,0 km/h
08.04.2015 17:00 24,6 C 29 % 1027,1 hPa 0,0 l/m 9,1 km/h N-NO 5,4 C 23,9 C 5,0 km/h
08.04.2015 18:00 22,6 C 29 % 1026,8 hPa 0,0 l/m 0,0 km/h N 3,7 C 22,6 C 0,0 km/h
08.04.2015 19:00 15,8 C 40 % 1026,8 hPa 0,0 l/m 0,0 km/h O-SO 2,2 C 15,8 C 0,0 km/h
08.04.2015 20:00 9,2 C 57 % 1027,3 hPa 0,0 l/m 0,0 km/h O-SO 1,1 C 9,2 C 0,0 km/h
08.04.2015 21:00 7,6 C 66 % 1027,4 hPa 0,0 l/m 0,0 km/h O-SO 1,7 C 7,6 C 0,0 km/h
08.04.2015 22:00 7,5 C 68 % 1026,7 hPa 0,0 l/m 0,0 km/h SO 2,0 C 7,5 C 0,0 km/h
08.04.2015 23:00 7,4 C 68 % 1026,4 hPa 0,0 l/m 0,0 km/h O-SO 1,9 C 7,4 C 0,0 km/h
09.04.2015 00:00 7,2 C 69 % 1026,4 hPa 0,0 l/m 21,4 km/h O-NO 1,9 C -0,8 C 11,9 km/h
09.04.2015 01:00 5,6 C 70 % 1026,0 hPa 0,0 l/m 0,0 km/h NO 0,6 C 5,6 C 0,0 km/h
09.04.2015 02:00 4,3 C 74 % 1025,5 hPa 0,0 l/m 0,0 km/h NO 0,1 C 4,3 C 0,0 km/h
09.04.2015 03:00 1,9 C 77 % 1025,8 hPa 0,0 l/m 0,0 km/h NO -1,7 C 1,9 C 0,0 km/h
09.04.2015 04:00 1,8 C 81 % 1025,6 hPa 0,0 l/m 0,0 km/h NO -1,1 C 1,8 C 0,0 km/h
09.04.2015 05:00 1,4 C 83 % 1025,6 hPa 0,0 l/m 0,0 km/h O-NO -1,2 C 1,4 C 0,0 km/h
09.04.2015 06:00 0,3 C 84 % 1026,1 hPa 0,0 l/m 0,0 km/h NO -2,1 C 0,3 C 0,0 km/h
09.04.2015 07:00 1,9 C 85 % 1025,9 hPa 0,0 l/m 0,0 km/h NO -0,3 C 1,9 C 0,0 km/h
09.04.2015 08:00 10,3 C 82 % 1026,0 hPa 0,0 l/m 0,0 km/h W 7,4 C 10,3 C 0,0 km/h
09.04.2015 09:00 16,9 C 51 % 1025,5 hPa 0,0 l/m 2,6 km/h W 6,7 C 16,9 C 1,4 km/h
09.04.2015 10:00 17,3 C 51 % 1025,8 hPa 0,0 l/m 0,0 km/h NW 7,1 C 17,3 C 0,0 km/h
09.04.2015 11:00 21,4 C 40 % 1025,4 hPa 0,0 l/m 0,0 km/h W 7,2 C 21,4 C 0,0 km/h
09.04.2015 12:00 23,4 C 37 % 1024,5 hPa 0,0 l/m 0,0 km/h W-NW 7,9 C 23,4 C 0,0 km/h
09.04.2015 13:00 23,2 C 35 % 1023,7 hPa 0,0 l/m 0,0 km/h W 6,9 C 23,2 C 0,0 km/h
09.04.2015 14:00 24,4 C 32 % 1023,4 hPa 0,0 l/m 3,2 km/h W 6,6 C 24,4 C 1,8 km/h
09.04.2015 15:00 27,4 C 30 % 1023,0 hPa 0,0 l/m 0,0 km/h W-SW 8,3 C 27,4 C 0,0 km/h
09.04.2015 16:00 30,3 C 26 % 1022,5 hPa 0,0 l/m 6,5 km/h W-NW 8,6 C 30,3 C 3,6 km/h
09.04.2015 17:00 29,7 C 22 % 1022,2 hPa 0,0 l/m 2,6 km/h W-NW 5,7 C 29,7 C 1,4 km/h
09.04.2015 18:00 28,2 C 25 % 1021,7 hPa 0,0 l/m 0,0 km/h W-NW 6,3 C 28,2 C 0,0 km/h
09.04.2015 19:00 18,9 C 37 % 1021,5 hPa 0,0 l/m 0,0 km/h SO 3,9 C 18,9 C 0,0 km/h
09.04.2015 20:00 12,1 C 54 % 1021,7 hPa 0,0 l/m 0,0 km/h SO 3,1 C 12,1 C 0,0 km/h
09.04.2015 21:00 10,3 C 63 % 1021,8 hPa 0,0 l/m 2,6 km/h O 3,6 C 10,3 C 1,4 km/h
09.04.2015 22:00 9,3 C 67 % 1022,2 hPa 0,0 l/m 0,0 km/h O-SO 3,5 C 9,3 C 0,0 km/h
09.04.2015 23:00 8,3 C 70 % 1022,0 hPa 0,0 l/m 0,0 km/h O 3,2 C 8,3 C 0,0 km/h
10.04.2015 00:00 7,4 C 72 % 1021,6 hPa 0,0 l/m 0,0 km/h O 2,7 C 7,4 C 0,0 km/h
10.04.2015 01:00 6,6 C 75 % 1021,7 hPa 0,0 l/m 0,0 km/h SO 2,5 C 6,6 C 0,0 km/h
10.04.2015 02:00 6,4 C 76 % 1021,5 hPa 0,0 l/m 0,0 km/h O-NO 2,5 C 6,4 C 0,0 km/h
10.04.2015 03:00 5,6 C 77 % 1021,3 hPa 0,0 l/m 0,0 km/h O 1,9 C 5,6 C 0,0 km/h
10.04.2015 04:00 4,5 C 79 % 1021,3 hPa 0,0 l/m 0,0 km/h O 1,2 C 4,5 C 0,0 km/h
10.04.2015 05:00 4,6 C 80 % 1021,1 hPa 0,0 l/m 0,0 km/h SO 1,5 C 4,6 C 0,0 km/h
10.04.2015 06:00 4,1 C 81 % 1021,3 hPa 0,0 l/m 0,0 km/h SO 1,1 C 4,1 C 0,0 km/h
10.04.2015 07:00 4,5 C 82 % 1021,4 hPa 0,0 l/m 0,0 km/h SO 1,7 C 4,5 C 0,0 km/h
10.04.2015 08:00 11,8 C 76 % 1021,4 hPa 0,0 l/m 0,0 km/h NO 7,7 C 11,8 C 0,0 km/h
10.04.2015 09:00 18,9 C 52 % 1021,3 hPa 0,0 l/m 0,0 km/h O-NO 8,8 C 18,9 C 0,0 km/h
10.04.2015 10:00 22,4 C 43 % 1021,0 hPa 0,0 l/m 0,0 km/h W 9,2 C 22,4 C 0,0 km/h
10.04.2015 11:00 23,4 C 32 % 1020,7 hPa 0,0 l/m 3,2 km/h W-NW 5,8 C 23,4 C 1,8 km/h
10.04.2015 12:00 23,9 C 29 % 1020,1 hPa 0,0 l/m 22,7 km/h S-SO 4,8 C 20,9 C 12,6 km/h
10.04.2015 13:00 24,9 C 28 % 1019,5 hPa 0,0 l/m 0,0 km/h W 5,1 C 24,9 C 0,0 km/h
10.04.2015 14:00 26,8 C 24 % 1018,9 hPa 0,0 l/m 0,0 km/h NW 4,5 C 26,8 C 0,0 km/h
10.04.2015 15:00 28,9 C 21 % 1018,1 hPa 0,0 l/m 0,0 km/h W-NW 4,4 C 28,9 C 0,0 km/h
10.04.2015 16:00 30,6 C 19 % 1017,4 hPa 0,0 l/m 0,0 km/h N 4,3 C 30,6 C 0,0 km/h
10.04.2015 17:00 30,3 C 19 % 1016,7 hPa 0,0 l/m 0,0 km/h N 4,1 C 30,3 C 0,0 km/h
10.04.2015 18:00 23,2 C 31 % 1016,5 hPa 0,0 l/m 0,0 km/h N 5,1 C 23,2 C 0,0 km/h
10.04.2015 19:00 16,9 C 45 % 1016,6 hPa 0,0 l/m 0,0 km/h SO 4,9 C 16,9 C 0,0 km/h
10.04.2015 20:00 13,9 C 51 % 1017,0 hPa 0,0 l/m 1,9 km/h SO 3,9 C 13,9 C 1,1 km/h
10.04.2015 21:00 11,5 C 59 % 1017,9 hPa 0,0 l/m 0,0 km/h O 3,8 C 11,5 C 0,0 km/h
10.04.2015 22:00 10,7 C 63 % 1018,3 hPa 0,0 l/m 0,0 km/h O 3,9 C 10,7 C 0,0 km/h
10.04.2015 23:00 10,7 C 65 % 1018,6 hPa 0,0 l/m 0,0 km/h S-SW 4,4 C 10,7 C 0,0 km/h
11.04.2015 00:00 12,4 C 57 % 1019,0 hPa 0,0 l/m 0,0 km/h S-SW 4,1 C 12,4 C 0,0 km/h
11.04.2015 01:00 13,9 C 47 % 1019,3 hPa 0,0 l/m 0,0 km/h S-SW 2,8 C 13,9 C 0,0 km/h
11.04.2015 02:00 14,4 C 44 % 1019,1 hPa 0,0 l/m 1,3 km/h S-SO 2,3 C 14,4 C 0,7 km/h
11.04.2015 03:00 13,6 C 46 % 1019,2 hPa 0,0 l/m 0,0 km/h W-SW 2,2 C 13,6 C 0,0 km/h
11.04.2015 04:00 12,8 C 47 % 1019,3 hPa 0,0 l/m 0,0 km/h W-SW 1,8 C 12,8 C 0,0 km/h
11.04.2015 05:00 12,2 C 49 % 1019,2 hPa 0,0 l/m 0,0 km/h S 1,8 C 12,2 C 0,0 km/h
11.04.2015 06:00 11,9 C 48 % 1019,4 hPa 0,0 l/m 0,0 km/h S-SW 1,2 C 11,9 C 0,0 km/h
11.04.2015 07:00 12,8 C 46 % 1019,9 hPa 0,0 l/m 22,7 km/h S-SW 1,5 C 6,2 C 12,6 km/h
11.04.2015 08:00 15,1 C 43 % 1020,7 hPa 0,0 l/m 21,4 km/h W 2,6 C 9,5 C 11,9 km/h
11.04.2015 09:00 14,9 C 43 % 1021,0 hPa 0,0 l/m 21,4 km/h SW 2,4 C 9,3 C 11,9 km/h
11.04.2015 10:00 14,0 C 49 % 1021,7 hPa 0,0 l/m 14,3 km/h W-SW 3,5 C 10,2 C 7,9 km/h
11.04.2015 11:00 11,6 C 65 % 1022,6 hPa 0,0 l/m 20,1 km/h S-SW 5,2 C 5,3 C 11,2 km/h
11.04.2015 12:00 10,8 C 74 % 1023,1 hPa 0,4 l/m 2,6 km/h SW 6,4 C 10,8 C 1,4 km/h
11.04.2015 13:00 13,6 C 70 % 1023,0 hPa 0,0 l/m 14,9 km/h SW 8,2 C 9,5 C 8,3 km/h
11.04.2015 14:00 11,4 C 74 % 1023,4 hPa 0,0 l/m 6,5 km/h S-SW 6,9 C 11,4 C 3,6 km/h
11.04.2015 15:00 12,4 C 74 % 1023,4 hPa 0,4 l/m 0,0 km/h S-SO 7,9 C 12,4 C 0,0 km/h
11.04.2015 16:00 15,1 C 68 % 1023,3 hPa 0,0 l/m 0,0 km/h S-SO 9,2 C 15,1 C 0,0 km/h
11.04.2015 17:00 15,8 C 65 % 1023,5 hPa 0,0 l/m 18,8 km/h SW 9,2 C 11,1 C 10,4 km/h
11.04.2015 18:00 14,4 C 66 % 1023,4 hPa 0,0 l/m 0,0 km/h W-SW 8,1 C 14,4 C 0,0 km/h
11.04.2015 19:00 13,3 C 69 % 1024,0 hPa 0,0 l/m 1,9 km/h W-NW 7,7 C 13,3 C 1,1 km/h
11.04.2015 20:00 12,2 C 73 % 1024,9 hPa 0,0 l/m 0,0 km/h NW 7,5 C 12,2 C 0,0 km/h
11.04.2015 21:00 11,3 C 80 % 1025,4 hPa 0,0 l/m 0,0 km/h N-NW 8,0 C 11,3 C 0,0 km/h
11.04.2015 22:00 10,7 C 81 % 1025,8 hPa 0,0 l/m 0,0 km/h N-NW 7,6 C 10,7 C 0,0 km/h
11.04.2015 23:00 10,7 C 81 % 1026,0 hPa 0,0 l/m 0,0 km/h N-NW 7,6 C 10,7 C 0,0 km/h
12.04.2015 00:00 9,9 C 82 % 1026,4 hPa 0,0 l/m 0,0 km/h NO 7,0 C 9,9 C 0,0 km/h
12.04.2015 01:00 8,4 C 83 % 1026,6 hPa 0,0 l/m 0,0 km/h N-NO 5,7 C 8,4 C 0,0 km/h
12.04.2015 02:00 7,4 C 84 % 1026,8 hPa 0,0 l/m 0,0 km/h O-NO 4,9 C 7,4 C 0,0 km/h
12.04.2015 03:00 6,7 C 85 % 1027,3 hPa 0,0 l/m 0,0 km/h O-NO 4,4 C 6,7 C 0,0 km/h
12.04.2015 04:00 6,9 C 85 % 1027,0 hPa 0,0 l/m 0,0 km/h O-SO 4,6 C 6,9 C 0,0 km/h
12.04.2015 05:00 6,4 C 84 % 1027,1 hPa 0,0 l/m 0,0 km/h O-SO 3,9 C 6,4 C 0,0 km/h
12.04.2015 06:00 5,8 C 84 % 1027,2 hPa 0,0 l/m 0,0 km/h O-NO 3,3 C 5,8 C 0,0 km/h
12.04.2015 07:00 6,6 C 84 % 1027,5 hPa 0,0 l/m 0,0 km/h SO 4,1 C 6,6 C 0,0 km/h
12.04.2015 08:00 12,4 C 77 % 1028,0 hPa 0,0 l/m 5,2 km/h SO 8,5 C 12,4 C 2,9 km/h
12.04.2015 09:00 17,0 C 68 % 1028,1 hPa 0,0 l/m 0,0 km/h W 11,0 C 17,0 C 0,0 km/h
12.04.2015 10:00 21,1 C 52 % 1028,0 hPa 0,0 l/m 0,0 km/h W 10,9 C 21,1 C 0,0 km/h
12.04.2015 11:00 23,7 C 48 % 1028,1 hPa 0,0 l/m 0,0 km/h W-NW 12,0 C 23,7 C 0,0 km/h
12.04.2015 12:00 23,0 C 47 % 1027,5 hPa 0,0 l/m 1,3 km/h W 11,1 C 23,0 C 0,7 km/h
12.04.2015 13:00 23,7 C 42 % 1027,1 hPa 0,0 l/m 7,1 km/h W 10,0 C 23,5 C 4,0 km/h
12.04.2015 14:00 24,2 C 41 % 1026,6 hPa 0,0 l/m 3,2 km/h S-SO 10,1 C 24,2 C 1,8 km/h
12.04.2015 15:00 26,1 C 37 % 1025,8 hPa 0,0 l/m 0,0 km/h W-NW 10,3 C 26,1 C 0,0 km/h
12.04.2015 16:00 29,1 C 32 % 1025,2 hPa 0,0 l/m 0,0 km/h SO 10,7 C 29,1 C 0,0 km/h
12.04.2015 17:00 29,9 C 30 % 1025,0 hPa 0,0 l/m 0,0 km/h NO 10,4 C 29,9 C 0,0 km/h
12.04.2015 18:00 29,3 C 29 % 1024,8 hPa 0,0 l/m 0,0 km/h NW 9,4 C 29,3 C 0,0 km/h
12.04.2015 19:00 21,5 C 37 % 1024,5 hPa 0,0 l/m 0,0 km/h O-SO 6,2 C 21,5 C 0,0 km/h
12.04.2015 20:00 12,9 C 61 % 1024,9 hPa 0,0 l/m 0,0 km/h O-SO 5,6 C 12,9 C 0,0 km/h
12.04.2015 21:00 10,9 C 70 % 1025,4 hPa 0,0 l/m 0,0 km/h O 5,6 C 10,9 C 0,0 km/h
12.04.2015 22:00 9,3 C 74 % 1025,3 hPa 0,0 l/m 0,0 km/h O-SO 4,9 C 9,3 C 0,0 km/h
12.04.2015 23:00 8,2 C 79 % 1026,0 hPa 0,0 l/m 0,0 km/h O-SO 4,8 C 8,2 C 0,0 km/h
Min-Datum _ 06.04.15 10.04.15 10.04.15 - 06.04.15 - 06.04.15 06.04.15 06.04.15
_ Min-Zeit 06:51 16:51 18:51 - 00:51 - 06:51 06:51 00:51
Minimum _ -3,6 C 19 % 1016,5 hPa - 0,0 km/h - -6,1 C -3,6 C 0,0 km/h
Max-Datum _ 10.04.15 06.04.15 07.04.15 11.04.15 08.04.15 - 12.04.15 10.04.15 08.04.15
_ Max-Zeit 16:51 08:51 09:51 12:51 11:51 - 11:51 16:51 11:51
Maximum _ 30,6 C 85 % 1033,5 hPa 0,4 l/m 24,0 km/h
W-NW
- 12,0 C 30,6 C 13,3 km/h
W-NW
Durchschnitt _ 11,8 C 59 % 1025,4 hPa #0,8 l/m 1,9 km/h SO 2,8 C 11,5 C 1,1 km/h
www.sexauwetter.de